Arnett, Oklahoma
Current Conditions -  °F | °C
As of 5:53 PM on Wednesday 26 Nov 2014 (Local Time) from KGAG Reporting Station
Clear Clear  
Wind Chill: 36°   Ceiling: Unl
Heat Index: 41°   Visibility: 10mi
Dew Point: 20°   Wind: 8mph
Humidity: 43%   Direction: 10°N
Pressure: 30.32"   Gusts: NA
Location:  36.14°N, 99.77°W
Report Text: KGAG 262353Z AUTO 01007KT 10SM CLR 05/M07 A3032 RMK AO2 SLP275 T00501067 10111 20050 53017
Loading
Personal Weather Stations






























Interactive Weather Map New forecast layout! Learn more

10-Day Weather Forecast

Advertisements
Track Severe Weather on mobile